createdAt,value
2017-08-08T00:00:32.321Z,0
2017-08-08T00:01:12.788Z,0
2017-08-08T00:01:53.240Z,0
2017-08-08T00:02:33.696Z,0
2017-08-08T00:03:14.150Z,0
2017-08-08T00:03:54.605Z,0
2017-08-08T00:04:35.062Z,0
2017-08-08T00:05:15.517Z,0
2017-08-08T00:05:55.971Z,0
2017-08-08T00:06:36.433Z,0
2017-08-08T00:07:16.885Z,0
2017-08-08T00:07:57.347Z,0
2017-08-08T00:08:37.804Z,0
2017-08-08T00:09:18.257Z,0
2017-08-08T00:09:58.715Z,0
2017-08-08T00:10:39.171Z,0
2017-08-08T00:11:19.627Z,0
2017-08-08T00:12:00.089Z,0
2017-08-08T00:12:40.543Z,0
2017-08-08T00:13:20.995Z,0
2017-08-08T00:14:01.456Z,0
2017-08-08T00:14:41.919Z,0
2017-08-08T00:15:22.373Z,0
2017-08-08T00:16:02.818Z,0
2017-08-08T00:16:43.273Z,0
2017-08-08T00:17:23.728Z,0
2017-08-08T00:18:04.190Z,0
2017-08-08T00:18:44.643Z,0
2017-08-08T00:19:25.103Z,0
2017-08-08T00:20:05.549Z,0
2017-08-08T00:20:46.006Z,0
2017-08-08T00:21:26.456Z,0
2017-08-08T00:22:06.907Z,0
2017-08-08T00:22:47.363Z,0
2017-08-08T00:23:27.819Z,0
2017-08-08T00:24:08.281Z,0
2017-08-08T00:24:48.737Z,0
2017-08-08T00:25:29.194Z,0
2017-08-08T00:26:09.653Z,0
2017-08-08T00:26:50.102Z,0
2017-08-08T00:27:30.555Z,0
2017-08-08T00:28:11.013Z,0
2017-08-08T00:28:51.465Z,0
2017-08-08T00:29:31.905Z,0
2017-08-08T00:30:12.361Z,0
2017-08-08T00:30:52.817Z,0
2017-08-08T00:31:33.278Z,0
2017-08-08T00:32:13.776Z,0
2017-08-08T00:32:54.228Z,0
2017-08-08T00:33:34.922Z,0
2017-08-08T00:34:15.150Z,0
2017-08-08T00:34:55.842Z,0
2017-08-08T00:35:36.298Z,0
2017-08-08T00:36:16.759Z,0
2017-08-08T00:36:57.228Z,0
2017-08-08T00:37:37.688Z,0
2017-08-08T00:38:18.272Z,0
2017-08-08T00:38:58.731Z,0
2017-08-08T00:39:39.184Z,0
2017-08-08T00:40:19.684Z,0
2017-08-08T00:41:00.134Z,0
2017-08-08T00:41:40.584Z,0
2017-08-08T00:42:21.058Z,0
2017-08-08T00:43:01.513Z,0
2017-08-08T00:43:41.970Z,0
2017-08-08T00:44:22.649Z,0
2017-08-08T00:45:03.472Z,0
2017-08-08T00:45:44.544Z,0
2017-08-08T00:46:25.353Z,0
2017-08-08T00:47:06.091Z,0
2017-08-08T00:47:46.596Z,0
2017-08-08T00:48:27.153Z,0
2017-08-08T00:49:07.636Z,0
2017-08-08T00:49:48.094Z,0
2017-08-08T00:50:28.550Z,0
2017-08-08T00:51:09.004Z,0
2017-08-08T00:51:49.482Z,0
2017-08-08T00:52:29.960Z,0
2017-08-08T00:53:10.415Z,0
2017-08-08T00:53:50.857Z,0
2017-08-08T00:54:31.315Z,0
2017-08-08T00:55:11.794Z,0
2017-08-08T00:55:52.254Z,0
2017-08-08T00:56:32.709Z,0
2017-08-08T00:57:13.168Z,0
2017-08-08T00:57:53.625Z,0
2017-08-08T00:58:34.098Z,0
2017-08-08T00:59:14.558Z,0
2017-08-08T00:59:55.013Z,0
2017-08-08T01:00:35.474Z,0
2017-08-08T01:01:15.931Z,0
2017-08-08T01:01:56.398Z,0
2017-08-08T01:02:36.854Z,0
2017-08-08T01:03:17.312Z,0
2017-08-08T01:03:57.773Z,0
2017-08-08T01:04:38.227Z,0
2017-08-08T01:05:18.684Z,0
2017-08-08T01:05:59.149Z,0
2017-08-08T01:06:39.600Z,0
2017-08-08T01:07:20.057Z,0
2017-08-08T01:08:00.509Z,0
2017-08-08T01:08:40.959Z,0
2017-08-08T01:09:21.423Z,0
2017-08-08T01:10:01.873Z,0
2017-08-08T01:10:42.324Z,0
2017-08-08T01:11:22.789Z,0
2017-08-08T01:12:03.251Z,0
2017-08-08T01:12:43.707Z,0
2017-08-08T01:13:24.162Z,0
2017-08-08T01:14:04.618Z,0
2017-08-08T01:14:45.077Z,0
2017-08-08T01:15:25.524Z,0
2017-08-08T01:16:05.984Z,0
2017-08-08T01:16:46.452Z,0
2017-08-08T01:17:26.911Z,0
2017-08-08T01:18:07.364Z,0
2017-08-08T01:18:47.809Z,0
2017-08-08T01:19:28.264Z,0
2017-08-08T01:20:08.722Z,0
2017-08-08T01:20:49.179Z,0
2017-08-08T01:21:29.637Z,0
2017-08-08T01:22:10.098Z,0
2017-08-08T01:22:50.558Z,0
2017-08-08T01:23:31.016Z,0
2017-08-08T01:24:11.489Z,0
2017-08-08T01:24:51.944Z,0
2017-08-08T01:25:32.390Z,0
2017-08-08T01:26:12.854Z,0
2017-08-08T01:26:53.301Z,0
2017-08-08T01:27:33.758Z,0
2017-08-08T01:28:14.211Z,0
2017-08-08T01:28:54.669Z,0
2017-08-08T01:29:35.130Z,0
2017-08-08T01:30:15.585Z,0
2017-08-08T01:30:56.044Z,0
2017-08-08T01:31:36.503Z,0
2017-08-08T01:32:16.958Z,0
2017-08-08T01:32:57.417Z,0
2017-08-08T01:33:37.876Z,0
2017-08-08T01:34:18.365Z,0
2017-08-08T01:34:58.822Z,0
2017-08-08T01:35:39.280Z,0
2017-08-08T01:36:19.756Z,0
2017-08-08T01:37:00.210Z,0
2017-08-08T01:37:40.669Z,0
2017-08-08T01:38:21.126Z,0
2017-08-08T01:39:01.582Z,0
2017-08-08T01:39:42.041Z,0
2017-08-08T01:40:22.497Z,0
2017-08-08T01:41:02.957Z,0
2017-08-08T01:41:43.410Z,0
2017-08-08T01:42:23.869Z,0
2017-08-08T01:43:04.371Z,0
2017-08-08T01:43:44.822Z,0
2017-08-08T01:44:25.282Z,0
2017-08-08T01:45:05.735Z,0
2017-08-08T01:45:46.195Z,0
2017-08-08T01:46:26.650Z,0
2017-08-08T01:47:07.098Z,0
2017-08-08T01:47:47.547Z,0
2017-08-08T01:48:28.007Z,0
2017-08-08T01:49:08.457Z,0
2017-08-08T01:49:48.902Z,0
2017-08-08T01:50:29.365Z,0
2017-08-08T01:51:09.829Z,0
2017-08-08T01:51:50.277Z,0
2017-08-08T01:52:30.726Z,0
2017-08-08T01:53:11.189Z,0
2017-08-08T01:53:51.648Z,0
2017-08-08T01:54:32.103Z,0
2017-08-08T01:55:12.557Z,0
2017-08-08T01:55:53.017Z,0
2017-08-08T01:56:33.473Z,0
2017-08-08T01:57:13.939Z,0
2017-08-08T01:57:54.395Z,0
2017-08-08T01:58:34.848Z,0
2017-08-08T01:59:15.306Z,0
2017-08-08T01:59:55.758Z,0
2017-08-08T02:00:36.205Z,0
2017-08-08T02:01:16.660Z,0
2017-08-08T02:01:57.102Z,0
2017-08-08T02:02:37.557Z,0
2017-08-08T02:03:18.021Z,0
2017-08-08T02:03:58.480Z,0
2017-08-08T02:04:38.939Z,0
2017-08-08T02:05:19.394Z,0
2017-08-08T02:05:59.852Z,0
2017-08-08T02:06:40.311Z,0
2017-08-08T02:07:20.767Z,0
2017-08-08T02:08:01.229Z,0
2017-08-08T02:08:41.673Z,0
2017-08-08T02:09:22.137Z,0
2017-08-08T02:10:02.587Z,0
2017-08-08T02:10:43.053Z,0
2017-08-08T02:11:23.515Z,0
2017-08-08T02:12:03.971Z,0
2017-08-08T02:12:44.429Z,0
2017-08-08T02:13:24.894Z,0
2017-08-08T02:14:05.349Z,0
2017-08-08T02:14:45.813Z,0
2017-08-08T02:15:26.268Z,0
2017-08-08T02:16:06.731Z,0
2017-08-08T02:16:47.190Z,0
2017-08-08T02:17:27.648Z,0
2017-08-08T02:18:08.105Z,0
2017-08-08T02:18:48.564Z,0
2017-08-08T02:19:29.027Z,0
2017-08-08T02:20:09.483Z,0
2017-08-08T02:20:49.937Z,0
2017-08-08T02:21:30.391Z,0
2017-08-08T02:22:10.852Z,0
2017-08-08T02:22:51.313Z,0
2017-08-08T02:23:31.770Z,0
2017-08-08T02:24:12.226Z,0
2017-08-08T02:24:52.680Z,0
2017-08-08T02:25:33.137Z,0
2017-08-08T02:26:13.596Z,0
2017-08-08T02:26:54.054Z,0
2017-08-08T02:27:34.512Z,0
2017-08-08T02:28:14.961Z,0
2017-08-08T02:28:55.476Z,0
2017-08-08T02:29:35.933Z,0
2017-08-08T02:30:16.394Z,0
2017-08-08T02:30:56.851Z,0
2017-08-08T02:31:37.307Z,0
2017-08-08T02:32:17.764Z,0
2017-08-08T02:32:58.216Z,0
2017-08-08T02:33:38.678Z,0
2017-08-08T02:34:19.136Z,0
2017-08-08T02:34:59.594Z,0
2017-08-08T02:35:40.054Z,0
2017-08-08T02:36:20.516Z,0
2017-08-08T02:37:00.971Z,0
2017-08-08T02:37:41.430Z,0
2017-08-08T02:38:21.885Z,0
2017-08-08T02:39:02.347Z,0
2017-08-08T02:39:42.806Z,0
2017-08-08T02:40:23.265Z,0
2017-08-08T02:41:03.729Z,0
2017-08-08T02:41:44.176Z,0
2017-08-08T02:42:24.630Z,0
2017-08-08T02:43:05.085Z,0
2017-08-08T02:43:45.544Z,0
2017-08-08T02:44:26.004Z,0
2017-08-08T02:45:06.463Z,0
2017-08-08T02:45:46.919Z,0
2017-08-08T02:46:27.374Z,0
2017-08-08T02:47:07.830Z,0
2017-08-08T02:47:48.281Z,0
2017-08-08T02:48:28.735Z,0
2017-08-08T02:49:09.191Z,0
2017-08-08T02:49:49.645Z,0
2017-08-08T02:50:30.107Z,0
2017-08-08T02:51:10.570Z,0
2017-08-08T02:51:51.032Z,0
2017-08-08T02:52:31.483Z,0
2017-08-08T02:53:11.955Z,0
2017-08-08T02:53:52.412Z,0
2017-08-08T02:54:32.866Z,0
2017-08-08T02:55:13.323Z,0
2017-08-08T02:55:53.774Z,0
2017-08-08T02:56:34.234Z,0
2017-08-08T02:57:14.694Z,0
2017-08-08T02:57:55.155Z,0
2017-08-08T02:58:35.609Z,0
2017-08-08T02:59:16.070Z,0
2017-08-08T02:59:56.526Z,0
2017-08-08T03:00:36.986Z,0
2017-08-08T03:01:17.441Z,0
2017-08-08T03:01:57.892Z,0
2017-08-08T03:02:38.345Z,0
2017-08-08T03:03:18.810Z,0
2017-08-08T03:03:59.268Z,0
2017-08-08T03:04:39.724Z,0
2017-08-08T03:05:20.184Z,0
2017-08-08T03:06:00.644Z,0
2017-08-08T03:06:41.102Z,0
2017-08-08T03:07:21.553Z,0
2017-08-08T03:08:02.030Z,0
2017-08-08T03:08:42.481Z,0
2017-08-08T03:09:22.935Z,0
2017-08-08T03:10:03.401Z,0
2017-08-08T03:10:43.860Z,0
2017-08-08T03:11:24.316Z,0
2017-08-08T03:12:04.775Z,0
2017-08-08T03:12:45.237Z,0
2017-08-08T03:13:25.693Z,0
2017-08-08T03:14:06.153Z,0
2017-08-08T03:14:46.610Z,0
2017-08-08T03:15:27.069Z,0
2017-08-08T03:16:07.515Z,0
2017-08-08T03:16:47.971Z,0
2017-08-08T03:17:28.436Z,0
2017-08-08T03:18:08.893Z,0
2017-08-08T03:18:49.345Z,0
2017-08-08T03:19:29.807Z,0
2017-08-08T03:20:10.309Z,0
2017-08-08T03:20:50.776Z,0
2017-08-08T03:21:31.232Z,0
2017-08-08T03:22:11.694Z,0
2017-08-08T03:22:52.143Z,0
2017-08-08T03:23:32.601Z,0
2017-08-08T03:24:13.049Z,0
2017-08-08T03:24:53.510Z,0
2017-08-08T03:25:33.960Z,0
2017-08-08T03:26:14.418Z,0
2017-08-08T03:26:54.880Z,0
2017-08-08T03:27:35.317Z,0
2017-08-08T03:28:15.790Z,0
2017-08-08T03:28:56.243Z,0
2017-08-08T03:29:36.699Z,0
2017-08-08T03:30:17.155Z,0
2017-08-08T03:30:57.606Z,0
2017-08-08T03:31:38.064Z,0
2017-08-08T03:32:18.524Z,0
2017-08-08T03:32:58.975Z,0
2017-08-08T03:33:39.431Z,0
2017-08-08T03:34:19.890Z,0
2017-08-08T03:35:00.345Z,0
2017-08-08T03:35:40.808Z,0
2017-08-08T03:36:21.264Z,0
2017-08-08T03:37:01.734Z,0
2017-08-08T03:37:42.192Z,0
2017-08-08T03:38:22.646Z,0
2017-08-08T03:39:03.109Z,0
2017-08-08T03:39:43.568Z,0
2017-08-08T03:40:24.023Z,0
2017-08-08T03:41:04.493Z,0
2017-08-08T03:41:44.931Z,0
2017-08-08T03:42:25.393Z,0
2017-08-08T03:43:05.850Z,0
2017-08-08T03:43:46.303Z,0
2017-08-08T03:44:26.771Z,0
2017-08-08T03:45:07.232Z,0
2017-08-08T03:45:47.691Z,0
2017-08-08T03:46:28.148Z,0
2017-08-08T03:47:08.606Z,0
2017-08-08T03:47:49.053Z,0
2017-08-08T03:48:29.511Z,0
2017-08-08T03:49:09.972Z,8
2017-08-08T03:49:50.428Z,8
2017-08-08T03:50:30.883Z,4
2017-08-08T03:51:11.332Z,0
2017-08-08T03:51:51.786Z,4
2017-08-08T03:52:32.244Z,4
2017-08-08T03:53:12.705Z,4
2017-08-08T03:53:53.165Z,4
2017-08-08T03:54:33.617Z,4
2017-08-08T03:55:14.072Z,8
2017-08-08T03:55:54.533Z,4
2017-08-08T03:56:34.986Z,8
2017-08-08T03:57:15.437Z,4
2017-08-08T03:57:55.911Z,8
2017-08-08T03:58:36.355Z,8
2017-08-08T03:59:16.797Z,8
2017-08-08T03:59:57.253Z,8
2017-08-08T04:00:37.705Z,8
2017-08-08T04:01:18.159Z,8
2017-08-08T04:01:58.632Z,12
2017-08-08T04:02:39.066Z,12
2017-08-08T04:03:19.516Z,8
2017-08-08T04:03:59.970Z,8
2017-08-08T04:04:40.423Z,8
2017-08-08T04:05:20.878Z,8
2017-08-08T04:06:01.335Z,12
2017-08-08T04:06:41.797Z,12
2017-08-08T04:07:22.244Z,12
2017-08-08T04:08:02.702Z,12
2017-08-08T04:08:43.159Z,12
2017-08-08T04:09:23.615Z,16
2017-08-08T04:10:04.072Z,16
2017-08-08T04:10:44.527Z,20
2017-08-08T04:11:24.982Z,24
2017-08-08T04:12:05.441Z,20
2017-08-08T04:12:45.894Z,24
2017-08-08T04:13:26.358Z,28
2017-08-08T04:14:06.828Z,24
2017-08-08T04:14:47.286Z,24
2017-08-08T04:15:27.748Z,28
2017-08-08T04:16:08.200Z,28
2017-08-08T04:16:48.651Z,28
2017-08-08T04:17:29.102Z,28
2017-08-08T04:18:09.551Z,32
2017-08-08T04:18:50.006Z,32
2017-08-08T04:19:30.465Z,32
2017-08-08T04:20:10.921Z,36
2017-08-08T04:20:51.370Z,36
2017-08-08T04:21:31.825Z,36
2017-08-08T04:22:12.283Z,40
2017-08-08T04:22:52.741Z,40
2017-08-08T04:23:33.199Z,44
2017-08-08T04:24:13.731Z,44
2017-08-08T04:24:54.204Z,48
2017-08-08T04:25:34.653Z,52
2017-08-08T04:26:15.101Z,56
2017-08-08T04:26:55.555Z,56
2017-08-08T04:27:36.004Z,60
2017-08-08T04:28:16.464Z,64
2017-08-08T04:28:56.921Z,68
2017-08-08T04:29:37.368Z,72
2017-08-08T04:30:17.818Z,76
2017-08-08T04:30:58.268Z,80
2017-08-08T04:31:38.723Z,84
2017-08-08T04:32:19.193Z,88
2017-08-08T04:32:59.648Z,92
2017-08-08T04:33:40.116Z,92
2017-08-08T04:34:20.574Z,96
2017-08-08T04:35:01.026Z,100
2017-08-08T04:35:41.481Z,100
2017-08-08T04:36:21.941Z,108
2017-08-08T04:37:02.417Z,112
2017-08-08T04:37:42.856Z,116
2017-08-08T04:38:23.313Z,120
2017-08-08T04:39:03.789Z,124
2017-08-08T04:39:44.239Z,132
2017-08-08T04:40:24.696Z,132
2017-08-08T04:41:05.153Z,136
2017-08-08T04:41:45.612Z,140
2017-08-08T04:42:26.069Z,144
2017-08-08T04:43:06.518Z,144
2017-08-08T04:43:46.973Z,144
2017-08-08T04:44:27.438Z,144
2017-08-08T04:45:07.884Z,144
2017-08-08T04:45:48.335Z,144
2017-08-08T04:46:28.785Z,144
2017-08-08T04:47:09.239Z,148
2017-08-08T04:47:49.689Z,148
2017-08-08T04:48:30.154Z,152
2017-08-08T04:49:10.604Z,156
2017-08-08T04:49:51.061Z,156
2017-08-08T04:50:31.508Z,156
2017-08-08T04:51:11.987Z,156
2017-08-08T04:51:52.410Z,152
2017-08-08T04:52:32.863Z,156
2017-08-08T04:53:13.334Z,156
2017-08-08T04:53:53.800Z,156
2017-08-08T04:54:34.330Z,156
2017-08-08T04:55:14.780Z,156
2017-08-08T04:55:55.232Z,156
2017-08-08T04:56:35.689Z,160
2017-08-08T04:57:16.145Z,160
2017-08-08T04:57:56.613Z,160
2017-08-08T04:58:37.055Z,156
2017-08-08T04:59:17.506Z,160
2017-08-08T04:59:57.963Z,160
2017-08-08T05:00:38.419Z,160
2017-08-08T05:01:18.873Z,168
2017-08-08T05:01:59.327Z,168
2017-08-08T05:02:39.792Z,172
2017-08-08T05:03:20.236Z,172
2017-08-08T05:04:00.692Z,172
2017-08-08T05:04:41.156Z,176
2017-08-08T05:05:21.618Z,176
2017-08-08T05:06:02.079Z,172
2017-08-08T05:06:42.532Z,172
2017-08-08T05:07:22.990Z,176
2017-08-08T05:08:03.446Z,172
2017-08-08T05:08:43.904Z,168
2017-08-08T05:09:24.502Z,172
2017-08-08T05:10:04.957Z,172
2017-08-08T05:10:45.409Z,168
2017-08-08T05:11:25.868Z,168
2017-08-08T05:12:06.325Z,168
2017-08-08T05:12:46.785Z,164
2017-08-08T05:13:27.243Z,164
2017-08-08T05:14:07.699Z,164
2017-08-08T05:14:48.157Z,160
2017-08-08T05:15:28.609Z,160
2017-08-08T05:16:09.076Z,156
2017-08-08T05:16:49.505Z,160
2017-08-08T05:17:29.963Z,156
2017-08-08T05:18:10.422Z,156
2017-08-08T05:18:50.879Z,160
2017-08-08T05:19:31.337Z,164
2017-08-08T05:20:11.797Z,164
2017-08-08T05:20:52.254Z,164
2017-08-08T05:21:32.705Z,172
2017-08-08T05:22:13.165Z,176
2017-08-08T05:22:53.622Z,180
2017-08-08T05:23:34.078Z,184
2017-08-08T05:24:14.532Z,192
2017-08-08T05:24:54.991Z,196
2017-08-08T05:25:35.447Z,200
2017-08-08T05:26:15.899Z,204
2017-08-08T05:26:56.363Z,212
2017-08-08T05:27:36.818Z,212
2017-08-08T05:28:17.276Z,220
2017-08-08T05:28:58.763Z,228
2017-08-08T05:29:39.234Z,228
2017-08-08T05:30:19.688Z,232
2017-08-08T05:31:00.187Z,236
2017-08-08T05:31:40.643Z,240
2017-08-08T05:32:21.104Z,244
2017-08-08T05:33:01.560Z,248
2017-08-08T05:33:42.014Z,252
2017-08-08T05:34:22.460Z,256
2017-08-08T05:35:02.919Z,260
2017-08-08T05:35:43.374Z,260
2017-08-08T05:36:23.828Z,264
2017-08-08T05:37:04.424Z,272
2017-08-08T05:37:44.882Z,272
2017-08-08T05:38:25.338Z,276
2017-08-08T05:39:05.791Z,276
2017-08-08T05:39:46.246Z,276
2017-08-08T05:40:26.704Z,280
2017-08-08T05:41:07.165Z,284
2017-08-08T05:41:47.632Z,288
2017-08-08T05:42:28.088Z,288
2017-08-08T05:43:08.539Z,292
2017-08-08T05:43:48.983Z,296
2017-08-08T05:44:29.440Z,296
2017-08-08T05:45:09.893Z,300
2017-08-08T05:45:50.372Z,300
2017-08-08T05:46:30.826Z,304
2017-08-08T05:47:11.299Z,308
2017-08-08T05:47:51.785Z,308
2017-08-08T05:50:25.971Z,316
2017-08-08T05:51:06.418Z,320
2017-08-08T05:51:47.314Z,324
2017-08-08T05:52:27.785Z,324
2017-08-08T05:53:08.397Z,328
2017-08-08T05:53:48.960Z,328
2017-08-08T05:54:29.332Z,336
2017-08-08T05:55:09.770Z,332
2017-08-08T05:55:50.236Z,336
2017-08-08T05:56:30.694Z,340
2017-08-08T05:57:11.145Z,340
2017-08-08T05:57:51.601Z,344
2017-08-08T05:58:32.078Z,348
2017-08-08T05:59:12.526Z,352
2017-08-08T05:59:52.962Z,356
2017-08-08T06:00:33.431Z,364
2017-08-08T06:01:13.878Z,368
2017-08-08T06:01:54.324Z,376
2017-08-08T06:02:34.765Z,380
2017-08-08T06:03:15.214Z,388
2017-08-08T06:03:55.661Z,396
2017-08-08T06:04:36.109Z,408
2017-08-08T06:05:16.561Z,424
2017-08-08T06:05:58.337Z,440
2017-08-08T06:06:38.792Z,452
2017-08-08T06:07:19.261Z,472
2017-08-08T06:07:59.763Z,476
2017-08-08T06:08:40.168Z,484
2017-08-08T06:09:20.621Z,492
2017-08-08T06:10:01.070Z,496
2017-08-08T06:10:41.538Z,508
2017-08-08T06:11:21.991Z,508
2017-08-08T06:12:02.447Z,512
2017-08-08T06:12:42.905Z,516
2017-08-08T06:13:23.370Z,508
2017-08-08T06:14:03.819Z,504
2017-08-08T06:14:44.265Z,504
2017-08-08T06:15:24.716Z,504
2017-08-08T06:17:52.704Z,528
2017-08-08T06:18:33.156Z,500
2017-08-08T06:19:13.607Z,484
2017-08-08T06:19:54.061Z,500
2017-08-08T06:20:34.527Z,508
2017-08-08T06:21:14.978Z,504
2017-08-08T06:21:55.437Z,504
2017-08-08T06:22:35.902Z,500
2017-08-08T06:23:16.346Z,504
2017-08-08T06:23:56.790Z,508
2017-08-08T06:24:37.241Z,508
2017-08-08T06:25:17.695Z,512
2017-08-08T06:25:58.171Z,512
2017-08-08T06:26:38.606Z,516
2017-08-08T06:27:19.062Z,520
2017-08-08T06:27:59.515Z,524
2017-08-08T06:28:39.965Z,528
2017-08-08T06:29:20.417Z,532
2017-08-08T06:30:00.875Z,536
2017-08-08T06:30:41.353Z,540
2017-08-08T06:31:21.809Z,544
2017-08-08T06:32:02.268Z,548
2017-08-08T06:32:42.732Z,556
2017-08-08T06:33:23.205Z,564
2017-08-08T06:34:03.641Z,572
2017-08-08T06:34:44.495Z,576
2017-08-08T06:35:24.782Z,580
2017-08-08T06:36:05.268Z,588
2017-08-08T06:38:23.150Z,596
2017-08-08T06:39:03.599Z,600
2017-08-08T06:39:44.054Z,600
2017-08-08T06:40:24.503Z,596
2017-08-08T06:41:04.995Z,592
2017-08-08T06:41:45.454Z,592
2017-08-08T06:43:58.253Z,564
2017-08-08T06:44:38.708Z,568
2017-08-08T06:45:19.169Z,560
2017-08-08T06:45:59.757Z,560
2017-08-08T06:46:40.207Z,564
2017-08-08T06:47:20.679Z,564
2017-08-08T06:48:01.110Z,568
2017-08-08T06:48:41.563Z,572
2017-08-08T06:49:21.990Z,564
2017-08-08T06:50:02.454Z,568
2017-08-08T06:50:42.853Z,576
2017-08-08T06:51:23.279Z,568
2017-08-08T06:52:03.691Z,524
2017-08-08T06:52:44.113Z,540
2017-08-08T06:55:17.162Z,644
2017-08-08T06:55:57.620Z,640
2017-08-08T06:56:38.079Z,660
2017-08-08T06:57:18.532Z,680
2017-08-08T06:57:59.047Z,704
2017-08-08T06:58:39.434Z,720
2017-08-08T06:59:19.889Z,736
2017-08-08T07:00:00.338Z,748
2017-08-08T07:00:40.796Z,764
2017-08-08T07:01:21.255Z,768
2017-08-08T07:02:01.710Z,772
2017-08-08T07:02:42.163Z,780
2017-08-08T07:03:22.619Z,784
2017-08-08T07:04:03.085Z,784
2017-08-08T07:04:43.547Z,788
2017-08-08T07:05:24.015Z,796
2017-08-08T07:06:04.474Z,812
2017-08-08T07:06:44.936Z,852
2017-08-08T07:07:25.386Z,988
2017-08-08T07:08:05.841Z,1072
2017-08-08T07:08:46.296Z,984
2017-08-08T07:09:26.747Z,1100
2017-08-08T07:10:07.201Z,1100
2017-08-08T07:10:47.649Z,1100
2017-08-08T07:11:28.102Z,996
2017-08-08T07:12:08.557Z,828
2017-08-08T07:12:49.016Z,1012
2017-08-08T07:13:29.464Z,820
2017-08-08T07:14:09.939Z,880
2017-08-08T07:14:50.386Z,704
2017-08-08T07:15:30.846Z,872
2017-08-08T07:16:11.303Z,828
2017-08-08T07:16:51.751Z,788
2017-08-08T07:17:32.204Z,736
2017-08-08T07:18:12.660Z,708
2017-08-08T07:18:53.112Z,672
2017-08-08T07:19:33.562Z,624
2017-08-08T07:20:14.017Z,608
2017-08-08T07:20:54.461Z,548
2017-08-08T07:21:34.914Z,568
2017-08-08T07:22:15.363Z,476
2017-08-08T07:22:55.818Z,452
2017-08-08T07:23:36.286Z,440
2017-08-08T07:24:16.746Z,440
2017-08-08T07:24:57.192Z,436
2017-08-08T07:25:37.630Z,440
2017-08-08T07:26:18.084Z,452
2017-08-08T07:26:58.538Z,460
2017-08-08T07:27:38.991Z,472
2017-08-08T07:28:19.437Z,488
2017-08-08T07:28:59.902Z,500
2017-08-08T07:29:40.350Z,512
2017-08-08T07:30:20.801Z,528
2017-08-08T07:31:01.249Z,540
2017-08-08T07:31:41.706Z,552
2017-08-08T07:32:22.163Z,560
2017-08-08T07:33:02.624Z,576
2017-08-08T07:33:43.108Z,588
2017-08-08T07:34:23.561Z,600
2017-08-08T07:35:04.011Z,612
2017-08-08T07:35:44.496Z,628
2017-08-08T07:36:24.954Z,648
2017-08-08T07:37:05.414Z,672
2017-08-08T07:37:45.873Z,692
2017-08-08T07:38:26.323Z,724
2017-08-08T07:39:06.782Z,756
2017-08-08T07:39:47.225Z,788
2017-08-08T07:40:27.670Z,824
2017-08-08T07:41:08.121Z,864
2017-08-08T07:41:48.578Z,928
2017-08-08T07:42:29.037Z,956
2017-08-08T07:43:09.494Z,1036
2017-08-08T07:43:49.948Z,1132
2017-08-08T07:44:30.407Z,1224
2017-08-08T07:45:10.862Z,1400
2017-08-08T07:45:51.320Z,1700
2017-08-08T07:46:31.793Z,2072
2017-08-08T07:47:12.263Z,2192
2017-08-08T07:47:52.730Z,2192
2017-08-08T07:48:33.172Z,2216
2017-08-08T07:49:13.623Z,2264
2017-08-08T07:49:54.073Z,2264
2017-08-08T07:50:34.540Z,2220
2017-08-08T07:51:14.997Z,2108
2017-08-08T07:51:55.450Z,2260
2017-08-08T07:52:35.902Z,2264
2017-08-08T07:53:16.362Z,2220
2017-08-08T07:53:56.813Z,1964
2017-08-08T07:54:37.269Z,2092
2017-08-08T07:55:17.719Z,2320
2017-08-08T07:55:58.181Z,2436
2017-08-08T07:56:38.704Z,2412
2017-08-08T07:57:19.102Z,2392
2017-08-08T07:57:59.561Z,2404
2017-08-08T07:58:40.023Z,2404
2017-08-08T07:59:20.476Z,2440
2017-08-08T08:00:00.937Z,2460
2017-08-08T08:00:41.394Z,2456
2017-08-08T08:01:21.877Z,2432
2017-08-08T08:02:02.332Z,2428
2017-08-08T08:02:42.787Z,2432
2017-08-08T08:03:23.244Z,2440
2017-08-08T08:04:03.697Z,2428
2017-08-08T08:04:44.140Z,2536
2017-08-08T08:05:24.591Z,2624
2017-08-08T08:06:05.076Z,2772
2017-08-08T08:06:45.525Z,2784
2017-08-08T08:07:25.982Z,2252
2017-08-08T08:08:06.439Z,1824
2017-08-08T08:08:46.895Z,1712
2017-08-08T08:09:27.346Z,1672
2017-08-08T08:10:07.797Z,1776
2017-08-08T08:10:48.257Z,2148
2017-08-08T08:11:28.705Z,2652
2017-08-08T08:12:09.156Z,2920
2017-08-08T08:12:49.602Z,2936
2017-08-08T08:13:30.056Z,2928
2017-08-08T08:14:10.510Z,2888
2017-08-08T08:14:50.978Z,2456
2017-08-08T08:15:31.438Z,2620
2017-08-08T08:16:11.892Z,2016
2017-08-08T08:16:52.346Z,2756
2017-08-08T08:17:32.864Z,2852
2017-08-08T08:18:13.464Z,1652
2017-08-08T08:18:53.913Z,2880
2017-08-08T08:19:34.360Z,1224
2017-08-08T08:20:14.809Z,1088
2017-08-08T08:20:55.258Z,1320
2017-08-08T08:21:35.728Z,1292
2017-08-08T08:22:16.182Z,1068
2017-08-08T08:22:56.776Z,1112
2017-08-08T08:23:37.222Z,1068
2017-08-08T08:24:17.681Z,972
2017-08-08T08:24:58.183Z,912
2017-08-08T08:25:38.644Z,864
2017-08-08T08:26:19.107Z,852
2017-08-08T08:26:59.560Z,860
2017-08-08T08:27:40.020Z,880
2017-08-08T08:28:20.460Z,900
2017-08-08T08:29:00.920Z,928
2017-08-08T08:29:41.376Z,960
2017-08-08T08:30:21.835Z,984
2017-08-08T08:31:02.286Z,1016
2017-08-08T08:31:42.771Z,1048
2017-08-08T08:32:23.209Z,1080
2017-08-08T08:33:03.662Z,1108
2017-08-08T08:33:44.118Z,1128
2017-08-08T08:34:24.586Z,1152
2017-08-08T08:35:05.029Z,1180
2017-08-08T08:35:45.483Z,1208
2017-08-08T08:36:25.950Z,1248
2017-08-08T08:37:06.405Z,1272
2017-08-08T08:37:46.861Z,1288
2017-08-08T08:38:27.316Z,1308
2017-08-08T08:39:07.771Z,1328
2017-08-08T08:39:48.235Z,1372
2017-08-08T08:40:28.690Z,1388
2017-08-08T08:41:09.146Z,1420
2017-08-08T08:41:49.595Z,1424
2017-08-08T08:42:30.055Z,1496
2017-08-08T08:43:10.500Z,1540
2017-08-08T08:43:50.960Z,1740
2017-08-08T08:44:31.414Z,1624
2017-08-08T08:45:11.927Z,1772
2017-08-08T08:45:52.407Z,1672
2017-08-08T08:46:32.865Z,1684
2017-08-08T08:47:13.327Z,2328
2017-08-08T08:47:53.778Z,2220
2017-08-08T08:48:34.234Z,1976
2017-08-08T08:49:14.692Z,2036
2017-08-08T08:49:55.151Z,1924
2017-08-08T08:50:35.598Z,1804
2017-08-08T08:51:16.053Z,1788
2017-08-08T08:51:56.503Z,1768
2017-08-08T08:52:36.958Z,1720
2017-08-08T08:53:17.443Z,1856
2017-08-08T08:53:57.886Z,1960
2017-08-08T08:54:38.343Z,1832
2017-08-08T08:55:18.799Z,1728
2017-08-08T08:55:59.291Z,1652
2017-08-08T08:56:39.700Z,1204
2017-08-08T08:57:20.183Z,1092
2017-08-08T08:58:00.633Z,1012
2017-08-08T08:58:41.072Z,964
2017-08-08T08:59:21.527Z,928
2017-08-08T09:00:02.100Z,904
2017-08-08T09:00:42.546Z,888
2017-08-08T09:01:22.997Z,876
2017-08-08T09:02:03.454Z,840
2017-08-08T09:02:43.914Z,804
2017-08-08T09:03:24.366Z,780
2017-08-08T09:04:04.823Z,764
2017-08-08T09:04:45.276Z,752
2017-08-08T09:05:25.727Z,740
2017-08-08T09:06:06.184Z,724
2017-08-08T09:06:46.671Z,716
2017-08-08T09:07:27.118Z,716
2017-08-08T09:08:07.553Z,724
2017-08-08T09:08:48.011Z,708
2017-08-08T09:09:28.484Z,688
2017-08-08T09:10:08.921Z,660
2017-08-08T09:10:49.371Z,644
2017-08-08T09:11:30.261Z,624
2017-08-08T09:12:10.706Z,612
2017-08-08T09:12:51.168Z,600
2017-08-08T09:13:31.626Z,588
2017-08-08T09:14:12.084Z,580
2017-08-08T09:14:52.533Z,576
2017-08-08T09:15:32.995Z,576
2017-08-08T09:16:13.454Z,580
2017-08-08T09:16:53.912Z,592
2017-08-08T09:17:34.420Z,608
2017-08-08T09:18:14.849Z,636
2017-08-08T09:18:55.916Z,664
2017-08-08T09:19:36.373Z,704
2017-08-08T09:20:16.825Z,744
2017-08-08T09:20:57.301Z,784
2017-08-08T09:21:37.734Z,816
2017-08-08T09:22:18.197Z,852
2017-08-08T09:22:58.649Z,876
2017-08-08T09:23:39.103Z,900
2017-08-08T09:24:20.661Z,928
2017-08-08T09:25:01.114Z,960
2017-08-08T09:25:41.570Z,964
2017-08-08T09:26:22.030Z,968
2017-08-08T09:27:02.510Z,968
2017-08-08T09:27:42.968Z,960
2017-08-08T09:28:23.416Z,940
2017-08-08T09:29:03.875Z,896
2017-08-08T09:29:44.322Z,804
2017-08-08T09:30:24.782Z,736
2017-08-08T09:31:05.238Z,692
2017-08-08T09:31:45.728Z,656
2017-08-08T09:32:26.192Z,612
2017-08-08T09:33:06.644Z,572
2017-08-08T09:33:47.104Z,536
2017-08-08T09:34:27.565Z,512
2017-08-08T09:35:08.024Z,504
2017-08-08T09:35:48.474Z,500
2017-08-08T09:36:28.930Z,508
2017-08-08T09:37:09.477Z,508
2017-08-08T09:37:49.937Z,512
2017-08-08T09:38:30.403Z,516
2017-08-08T09:39:10.852Z,516
2017-08-08T09:39:52.019Z,504
2017-08-08T09:40:32.474Z,492
2017-08-08T09:41:12.930Z,480